Time;durP1;ratioP1;P1;durP2;ratioP2;P2;SDS_P1;SDS_P2;PMS_P1;PMS_P2;Temp;Humidity;BMP_temperature;BMP_pressure;BME280_temperature;BME280_humidity;BME280_pressure;Samples;Min_cycle;Max_cycle;Signal;HPM_P1;HPM_P2
2021/05/28 00:01:32;;;;;;;2.28;0.40;;;7.30;99.90;;;;;;4969717;29;20037;-81
2021/05/28 00:03:58;;;;;;;2.55;0.40;;;7.30;99.90;;;;;;4968550;29;20035;-81
2021/05/28 00:06:24;;;;;;;2.25;0.40;;;7.30;99.90;;;;;;4952169;29;20030;-81
2021/05/28 00:08:49;;;;;;;1.17;0.40;;;7.40;99.90;;;;;;4969567;29;20074;-81
2021/05/28 00:11:15;;;;;;;2.03;0.35;;;7.40;99.90;;;;;;4952271;29;20035;-81
2021/05/28 00:13:41;;;;;;;1.83;0.40;;;7.30;99.90;;;;;;4968361;29;20069;-81
2021/05/28 00:16:07;;;;;;;2.08;0.38;;;7.40;99.90;;;;;;4969585;29;20038;-80
2021/05/28 00:18:32;;;;;;;1.90;0.40;;;7.30;99.90;;;;;;4969468;29;20046;-81
2021/05/28 00:20:58;;;;;;;2.33;0.50;;;7.30;99.90;;;;;;4968107;29;20062;-81
2021/05/28 00:23:24;;;;;;;3.20;0.45;;;7.30;99.90;;;;;;4971208;28;20039;-81
2021/05/28 00:25:49;;;;;;;1.52;0.90;;;7.40;99.90;;;;;;4987425;28;20050;-82
2021/05/28 00:28:15;;;;;;;4.07;1.25;;;7.40;99.90;;;;;;4987410;28;20043;-81
2021/05/28 00:30:41;;;;;;;3.58;0.50;;;7.40;99.90;;;;;;4988509;28;20129;-81
2021/05/28 00:33:06;;;;;;;2.97;0.60;;;7.40;99.90;;;;;;4988680;28;20058;-81
2021/05/28 00:35:32;;;;;;;3.85;0.75;;;7.40;99.90;;;;;;4987035;28;20030;-80
2021/05/28 00:37:58;;;;;;;5.32;0.75;;;7.50;99.90;;;;;;5003332;28;20055;-81
2021/05/28 00:40:23;;;;;;;3.88;0.90;;;7.40;99.90;;;;;;4987231;28;20027;-81
2021/05/28 00:42:49;;;;;;;4.70;0.80;;;7.40;99.90;;;;;;4986953;28;20065;-82
2021/05/28 00:45:15;;;;;;;4.63;1.00;;;7.40;99.90;;;;;;4987181;28;20118;-81
2021/05/28 00:47:41;;;;;;;5.40;1.20;;;7.50;99.90;;;;;;4988258;28;20046;-81
2021/05/28 00:50:08;;;;;;;3.38;1.05;;;7.40;99.90;;;;;;4988421;28;20023;-81
2021/05/28 00:52:34;;;;;;;3.40;0.93;;;7.40;99.90;;;;;;4988054;28;20053;-81
2021/05/28 00:55:00;;;;;;;7.88;2.67;;;7.40;99.90;;;;;;4988065;28;20625;-81
2021/05/28 00:57:28;;;;;;;5.18;1.20;;;7.60;99.90;;;;;;4988141;28;20318;-81
2021/05/28 00:59:56;;;;;;;8.43;2.45;;;7.60;99.90;;;;;;4988185;28;20042;-81
2021/05/28 01:02:26;;;;;;;8.30;3.15;;;7.60;99.90;;;;;;4987847;28;20121;-82
2021/05/28 01:04:52;;;;;;;6.97;2.60;;;7.70;99.90;;;;;;4970764;28;20089;-81
2021/05/28 01:07:18;;;;;;;5.47;2.17;;;7.70;99.90;;;;;;4987738;28;20031;-81
2021/05/28 01:09:44;;;;;;;9.13;3.35;;;7.70;99.90;;;;;;4987945;28;20027;-81
2021/05/28 01:12:10;;;;;;;6.88;3.30;;;7.70;99.90;;;;;;4988032;28;20023;-81
2021/05/28 01:14:36;;;;;;;9.15;3.05;;;7.70;99.90;;;;;;4954480;28;20053;-82
2021/05/28 01:17:02;;;;;;;11.90;4.68;;;7.80;99.90;;;;;;4987760;28;20468;-81
2021/05/28 01:19:28;;;;;;;13.23;5.25;;;7.80;99.90;;;;;;4987884;28;20045;-81
2021/05/28 01:21:56;;;;;;;12.10;6.28;;;7.70;99.90;;;;;;4970375;28;20447;-81
2021/05/28 01:24:21;;;;;;;9.60;5.63;;;7.70;99.90;;;;;;4986388;28;20105;-81
2021/05/28 01:26:47;;;;;;;10.45;6.60;;;7.80;99.90;;;;;;4982959;28;20479;-81
2021/05/28 01:29:14;;;;;;;13.55;6.00;;;7.80;99.90;;;;;;4983242;28;20029;-82
2021/05/28 01:31:40;;;;;;;7.72;3.70;;;7.80;99.90;;;;;;4954179;28;20030;-81
2021/05/28 01:34:06;;;;;;;11.35;4.63;;;7.80;99.90;;;;;;4986413;28;20126;-81
2021/05/28 01:36:31;;;;;;;10.85;7.00;;;7.80;99.90;;;;;;4986185;28;20105;-80
2021/05/28 01:38:57;;;;;;;21.27;8.15;;;7.80;99.90;;;;;;4987598;28;20049;-81
2021/05/28 01:41:30;;;;;;;12.35;5.57;;;7.80;99.90;;;;;;4969925;28;20034;-80
2021/05/28 01:43:56;;;;;;;7.63;4.40;;;7.80;99.90;;;;;;4987101;28;20050;-82
2021/05/28 01:46:23;;;;;;;7.53;3.90;;;7.80;99.90;;;;;;4953963;28;20037;-81
2021/05/28 01:48:49;;;;;;;11.93;7.72;;;7.80;99.90;;;;;;4987519;28;20038;-82
2021/05/28 01:51:15;;;;;;;14.45;7.80;;;7.80;99.90;;;;;;4969971;28;20479;-81
2021/05/28 01:53:41;;;;;;;9.48;5.82;;;7.80;99.90;;;;;;4986097;28;20038;-81
2021/05/28 01:56:06;;;;;;;13.68;7.03;;;7.80;99.90;;;;;;4986759;28;20438;-82
2021/05/28 01:58:32;;;;;;;14.27;5.60;;;7.90;99.90;;;;;;4969897;28;20122;-81
2021/05/28 02:00:58;;;;;;;8.15;5.68;;;7.90;99.90;;;;;;4985885;28;20031;-82
2021/05/28 02:03:25;;;;;;;15.00;6.82;;;7.80;99.90;;;;;;4969645;28;20035;-81
2021/05/28 02:05:51;;;;;;;14.15;7.22;;;7.80;99.90;;;;;;4986886;28;20037;-82
2021/05/28 02:08:16;;;;;;;9.93;6.43;;;7.90;99.90;;;;;;4986777;28;20054;-81
2021/05/28 02:10:45;;;;;;;8.88;4.78;;;7.90;99.90;;;;;;5001621;23;20051;-82
2021/05/28 02:13:11;;;;;;;8.02;5.57;;;7.80;99.90;;;;;;5006913;28;20034;-82
2021/05/28 02:15:37;;;;;;;10.75;5.85;;;7.90;99.90;;;;;;4989553;28;20135;-82
2021/05/28 02:18:06;;;;;;;8.80;5.78;;;7.90;99.90;;;;;;4989096;28;20575;-82
2021/05/28 02:20:32;;;;;;;9.05;4.90;;;7.80;99.90;;;;;;4988792;28;20041;-81
2021/05/28 02:22:58;;;;;;;9.55;6.70;;;7.70;99.90;;;;;;4988944;28;20083;-81
2021/05/28 02:25:24;;;;;;;8.63;5.22;;;7.60;99.90;;;;;;4988743;28;20033;-82
2021/05/28 02:27:49;;;;;;;10.57;5.85;;;7.60;99.90;;;;;;5006390;28;20038;-81
2021/05/28 02:30:16;;;;;;;12.10;6.75;;;7.60;99.90;;;;;;4988760;28;20099;-81
2021/05/28 02:32:42;;;;;;;9.50;5.82;;;7.60;99.90;;;;;;4988984;28;20526;-80
2021/05/28 02:35:10;;;;;;;8.13;5.15;;;7.60;99.90;;;;;;4988435;28;20042;-82
2021/05/28 02:37:36;;;;;;;10.60;6.30;;;7.60;99.90;;;;;;4972673;28;20037;-82
2021/05/28 02:40:05;;;;;;;12.57;7.30;;;7.60;99.90;;;;;;5006147;28;20026;-83
2021/05/28 02:42:30;;;;;;;11.68;6.82;;;7.60;99.90;;;;;;4988382;28;20077;-81
2021/05/28 02:44:56;;;;;;;11.98;6.85;;;7.60;99.90;;;;;;5006052;28;20023;-82
2021/05/28 02:47:22;;;;;;;10.35;5.63;;;7.60;99.90;;;;;;5006984;28;20198;-82
2021/05/28 02:49:49;;;;;;;8.50;6.32;;;7.70;99.90;;;;;;5006013;28;20345;-81
2021/05/28 02:52:15;;;;;;;11.55;7.38;;;7.70;99.90;;;;;;4988500;28;20041;-82
2021/05/28 02:54:43;;;;;;;19.55;8.50;;;7.70;99.90;;;;;;5004900;28;20030;-82
2021/05/28 02:57:09;;;;;;;13.13;6.32;;;7.70;99.90;;;;;;4988272;28;20030;-82
2021/05/28 02:59:34;;;;;;;10.70;7.35;;;7.80;99.90;;;;;;5005945;28;20367;-81
2021/05/28 03:02:01;;;;;;;10.18;6.70;;;7.70;99.90;;;;;;5004557;28;20044;-82
2021/05/28 03:04:26;;;;;;;16.52;9.00;;;7.70;99.90;;;;;;4988317;28;20037;-82
2021/05/28 03:06:52;;;;;;;15.57;7.13;;;7.70;99.90;;;;;;4988222;28;20031;-82
2021/05/28 03:09:18;;;;;;;11.00;7.38;;;7.70;99.90;;;;;;4992145;28;20057;-82
2021/05/28 03:11:43;;;;;;;13.90;9.10;;;7.70;99.90;;;;;;4991767;28;20043;-81
2021/05/28 03:14:09;;;;;;;15.20;8.25;;;7.60;99.90;;;;;;4992080;28;20034;-82
2021/05/28 03:16:35;;;;;;;10.23;6.85;;;7.60;99.90;;;;;;5009653;28;20057;-82
2021/05/28 03:19:05;;;;;;;10.77;6.10;;;7.70;99.90;;;;;;5009636;28;20026;-82
2021/05/28 03:23:58;;;;;;;6.22;4.65;;;7.70;99.90;;;;;;4991909;28;19917;-81
2021/05/28 03:26:25;;;;;;;6.40;3.60;;;7.80;99.90;;;;;;4991437;28;20065;-81
2021/05/28 03:28:52;;;;;;;8.38;5.60;;;7.60;99.90;;;;;;4991916;28;20085;-82
2021/05/28 03:31:18;;;;;;;7.40;4.70;;;7.70;99.90;;;;;;4991477;28;20046;-82
2021/05/28 03:33:44;;;;;;;10.00;6.40;;;7.70;99.90;;;;;;4991754;28;20053;-82
2021/05/28 03:36:10;;;;;;;14.80;6.65;;;7.70;99.90;;;;;;4991550;28;20050;-81
2021/05/28 03:38:36;;;;;;;10.43;6.20;;;7.70;99.90;;;;;;4975631;28;20054;-82
2021/05/28 03:41:04;;;;;;;15.02;6.65;;;7.70;99.90;;;;;;4991539;28;20026;-81
2021/05/28 03:43:30;;;;;;;9.15;6.38;;;7.60;99.90;;;;;;4975343;28;20038;-82
2021/05/28 03:45:55;;;;;;;11.20;7.18;;;7.60;99.90;;;;;;5007737;28;20056;-81
2021/05/28 03:48:21;;;;;;;8.68;5.90;;;7.60;99.90;;;;;;5007573;28;20046;-81
2021/05/28 03:50:47;;;;;;;9.27;5.53;;;7.50;99.90;;;;;;4975000;28;20030;-81
2021/05/28 03:53:12;;;;;;;9.95;7.25;;;7.60;99.90;;;;;;4991111;28;20049;-81
2021/05/28 03:55:39;;;;;;;8.95;6.20;;;7.50;99.90;;;;;;4974615;28;20037;-82
2021/05/28 03:58:05;;;;;;;9.95;5.43;;;7.60;99.90;;;;;;4974340;28;20031;-81
2021/05/28 04:00:30;;;;;;;13.57;7.78;;;7.60;99.90;;;;;;4974325;28;20076;-81
2021/05/28 04:02:56;;;;;;;16.23;8.90;;;7.50;99.90;;;;;;4974589;28;20090;-82
2021/05/28 04:05:42;;;;;;;12.90;8.50;;;7.50;99.90;;;;;;4990361;28;20026;-82
2021/05/28 04:08:08;;;;;;;14.30;9.55;;;7.50;99.90;;;;;;4966760;29;20546;-82
2021/05/28 04:10:33;;;;;;;13.18;8.18;;;7.50;99.90;;;;;;4950579;29;20043;-81
2021/05/28 04:12:59;;;;;;;15.85;7.80;;;7.50;99.90;;;;;;4950846;29;20049;-82
2021/05/28 04:15:24;;;;;;;12.55;7.63;;;7.60;99.90;;;;;;4966735;29;20099;-82
2021/05/28 04:17:50;;;;;;;10.68;7.25;;;7.50;99.90;;;;;;4950757;28;20035;-83
2021/05/28 04:20:16;;;;;;;11.50;7.13;;;7.60;99.90;;;;;;4950455;29;20056;-82
2021/05/28 04:22:41;;;;;;;10.50;7.07;;;7.60;99.90;;;;;;4966514;29;20456;-82
2021/05/28 04:25:07;;;;;;;11.20;7.15;;;7.60;99.90;;;;;;4914295;29;20036;-82
2021/05/28 04:27:34;;;;;;;10.00;6.32;;;7.70;99.90;;;;;;4947204;29;20043;-82
2021/05/28 04:30:00;;;;;;;8.63;5.60;;;7.80;99.90;;;;;;4931032;29;20063;-82
2021/05/28 04:32:26;;;;;;;10.55;6.15;;;7.80;99.90;;;;;;4930792;29;20044;-82
2021/05/28 04:34:51;;;;;;;9.02;5.68;;;7.80;99.90;;;;;;4930585;29;20055;-82
2021/05/28 04:37:17;;;;;;;7.95;4.60;;;7.90;99.90;;;;;;4944613;29;20023;-82
2021/05/28 04:39:42;;;;;;;11.77;6.90;;;7.90;99.90;;;;;;4946041;29;20445;-82
2021/05/28 04:42:08;;;;;;;8.93;6.70;;;7.90;99.90;;;;;;4947022;29;20496;-82
2021/05/28 04:44:34;;;;;;;7.55;4.82;;;7.80;99.90;;;;;;4947685;28;20109;-82
2021/05/28 04:46:59;;;;;;;12.07;6.75;;;7.90;99.90;;;;;;5007225;28;20097;-82
2021/05/28 04:49:25;;;;;;;11.35;6.45;;;7.80;99.90;;;;;;4989912;28;20475;-82
2021/05/28 04:51:51;;;;;;;8.77;5.25;;;7.80;99.90;;;;;;4989538;28;20050;-82
2021/05/28 04:54:17;;;;;;;11.07;7.20;;;7.80;99.90;;;;;;4989221;28;20129;-82
2021/05/28 04:56:43;;;;;;;8.80;5.65;;;7.90;99.90;;;;;;5007079;28;20058;-81
2021/05/28 04:59:09;;;;;;;10.02;7.10;;;8.00;99.90;;;;;;4985975;28;20072;-82
2021/05/28 05:01:34;;;;;;;11.88;8.23;;;7.90;99.90;;;;;;4986210;28;20114;-82
2021/05/28 05:04:00;;;;;;;13.25;9.65;;;7.80;99.90;;;;;;4987599;28;20053;-82
2021/05/28 05:06:26;;;;;;;17.35;9.88;;;7.70;99.90;;;;;;4969576;28;20045;-81
2021/05/28 05:08:51;;;;;;;11.90;7.50;;;7.70;99.90;;;;;;4985246;28;20043;-82
2021/05/28 05:11:17;;;;;;;11.57;7.72;;;7.80;99.90;;;;;;4969543;28;20142;-81
2021/05/28 05:13:43;;;;;;;11.80;6.75;;;7.80;99.90;;;;;;4969503;28;20038;-82
2021/05/28 05:16:08;;;;;;;8.30;6.25;;;8.00;99.90;;;;;;4974638;28;20041;-82
2021/05/28 05:18:34;;;;;;;8.65;6.80;;;8.10;99.90;;;;;;4980456;28;20035;-81
2021/05/28 05:20:59;;;;;;;8.68;5.57;;;8.10;99.90;;;;;;4985414;28;20041;-81
2021/05/28 05:23:25;;;;;;;9.15;5.53;;;8.10;99.90;;;;;;4986764;28;20031;-82
2021/05/28 05:25:51;;;;;;;7.47;5.05;;;8.10;99.90;;;;;;4978935;28;20069;-82
2021/05/28 05:28:16;;;;;;;8.52;5.35;;;8.20;99.90;;;;;;4969456;28;20034;-81
2021/05/28 05:30:42;;;;;;;12.93;8.40;;;8.30;99.90;;;;;;4984706;28;20486;-82
2021/05/28 05:33:08;;;;;;;12.20;7.55;;;8.10;99.90;;;;;;4985678;28;20041;-82
2021/05/28 05:35:34;;;;;;;9.40;6.55;;;8.10;99.90;;;;;;4985511;28;20395;-82
2021/05/28 05:38:01;;;;;;;12.10;7.72;;;8.10;99.90;;;;;;4985484;28;20035;-82
2021/05/28 05:40:26;;;;;;;13.13;8.35;;;7.90;99.90;;;;;;4985595;28;20070;-81
2021/05/28 05:42:52;;;;;;;13.77;8.25;;;7.90;99.90;;;;;;4988633;28;20041;-82
2021/05/28 05:45:18;;;;;;;11.13;7.65;;;7.80;99.90;;;;;;4988688;28;20098;-81
2021/05/28 05:47:44;;;;;;;7.03;4.30;;;7.90;99.90;;;;;;4988514;28;20042;-82
2021/05/28 05:50:11;;;;;;;7.70;5.15;;;8.00;99.90;;;;;;4988675;28;20050;-81
2021/05/28 05:52:37;;;;;;;7.57;5.50;;;8.20;99.90;;;;;;5004825;28;20101;-82
2021/05/28 05:55:04;;;;;;;9.05;5.20;;;8.30;99.90;;;;;;4988600;28;20045;-83
2021/05/28 05:57:31;;;;;;;10.40;6.35;;;8.40;99.90;;;;;;5004675;28;20080;-82
2021/05/28 05:59:57;;;;;;;9.82;5.15;;;8.60;99.90;;;;;;4988193;28;20449;-81
2021/05/28 06:02:22;;;;;;;3.67;2.25;;;8.70;99.90;;;;;;4988546;28;20116;-82
2021/05/28 06:04:48;;;;;;;9.15;5.57;;;8.50;99.90;;;;;;4988602;28;20042;-82
2021/05/28 06:07:13;;;;;;;11.70;5.20;;;8.40;99.90;;;;;;5004316;28;20085;-82
2021/05/28 06:09:39;;;;;;;9.57;6.47;;;8.50;99.90;;;;;;4988509;28;20170;-82
2021/05/28 06:12:05;;;;;;;8.25;5.20;;;8.30;99.90;;;;;;5004361;28;20046;-82
2021/05/28 06:14:31;;;;;;;18.05;8.18;;;8.50;99.90;;;;;;4972333;28;20121;-82
2021/05/28 06:16:57;;;;;;;9.63;5.93;;;8.30;99.90;;;;;;5005645;28;20077;-82
2021/05/28 06:19:22;;;;;;;11.52;6.72;;;8.60;99.90;;;;;;5005841;28;20057;-82
2021/05/28 06:21:49;;;;;;;10.80;6.20;;;8.30;99.90;;;;;;5004346;28;20065;-82
2021/05/28 06:24:14;;;;;;;9.77;5.50;;;8.30;99.90;;;;;;4988298;28;20041;-82
2021/05/28 06:26:40;;;;;;;6.47;3.53;;;8.40;99.90;;;;;;4988206;28;20030;-82
2021/05/28 06:29:07;;;;;;;11.15;6.00;;;8.50;99.90;;;;;;4988158;28;20056;-82
2021/05/28 06:31:34;;;;;;;5.00;2.88;;;8.40;99.90;;;;;;5005535;28;20028;-82
2021/05/28 06:33:59;;;;;;;6.90;4.45;;;8.60;99.90;;;;;;4988164;28;20125;-82
2021/05/28 06:36:25;;;;;;;10.32;5.53;;;8.30;99.90;;;;;;5005655;28;20463;-83
2021/05/28 06:38:51;;;;;;;10.02;6.55;;;8.40;99.90;;;;;;4988047;28;20042;-82
2021/05/28 06:41:16;;;;;;;11.07;5.53;;;8.30;99.90;;;;;;4988713;28;20098;-82
2021/05/28 06:43:42;;;;;;;11.43;7.32;;;8.30;99.90;;;;;;4975978;28;20056;-81
2021/05/28 06:46:07;;;;;;;8.40;5.10;;;8.40;99.90;;;;;;5008228;28;20034;-82
2021/05/28 06:48:33;;;;;;;11.90;6.05;;;8.40;99.90;;;;;;5008253;28;20087;-81
2021/05/28 06:50:59;;;;;;;10.55;5.97;;;8.60;99.90;;;;;;5008198;28;20042;-81
2021/05/28 06:53:25;;;;;;;10.38;5.88;;;8.60;99.90;;;;;;5008295;28;20034;-82
2021/05/28 06:55:50;;;;;;;7.90;5.05;;;9.00;99.90;;;;;;4992172;28;20034;-82
2021/05/28 06:58:17;;;;;;;9.27;4.75;;;9.20;99.90;;;;;;5009381;28;20125;-82
2021/05/28 07:00:43;;;;;;;9.98;5.57;;;9.40;99.90;;;;;;4991743;28;20030;-82
2021/05/28 07:03:09;;;;;;;10.60;5.50;;;9.30;99.90;;;;;;4991665;28;20038;-82
2021/05/28 07:05:35;;;;;;;9.52;5.85;;;9.40;99.90;;;;;;4991623;28;20058;-83
2021/05/28 07:08:01;;;;;;;8.50;5.72;;;9.50;99.90;;;;;;4991447;28;20042;-82
2021/05/28 07:10:27;;;;;;;6.68;4.20;;;9.70;99.90;;;;;;4991343;28;20030;-82
2021/05/28 07:12:53;;;;;;;8.15;5.22;;;9.90;99.90;;;;;;4991550;28;20136;-82
2021/05/28 07:15:18;;;;;;;8.27;4.20;;;10.00;99.90;;;;;;5009143;28;20026;-82
2021/05/28 07:17:45;;;;;;;7.90;5.15;;;10.10;99.90;;;;;;4991016;28;20068;-82
2021/05/28 07:20:11;;;;;;;9.07;4.50;;;10.10;99.90;;;;;;4975297;28;20386;-82
2021/05/28 07:22:37;;;;;;;7.05;4.00;;;10.20;99.90;;;;;;4991516;28;20034;-82
2021/05/28 07:25:03;;;;;;;8.43;4.40;;;9.80;99.90;;;;;;5007495;28;20072;-82
2021/05/28 07:27:29;;;;;;;7.55;4.65;;;9.80;99.90;;;;;;4991265;28;20045;-82
2021/05/28 07:29:54;;;;;;;7.72;4.47;;;9.80;99.90;;;;;;4991220;28;20034;-83
2021/05/28 07:32:20;;;;;;;6.95;5.05;;;9.80;99.90;;;;;;4991196;28;20060;-82
2021/05/28 07:34:46;;;;;;;8.25;5.20;;;9.70;99.90;;;;;;4991159;28;20034;-82
2021/05/28 07:37:12;;;;;;;8.57;5.40;;;9.80;99.90;;;;;;4991131;28;20095;-82
2021/05/28 07:39:37;;;;;;;6.70;5.07;;;9.80;99.90;;;;;;4991222;28;20026;-84
2021/05/28 07:42:04;;;;;;;8.20;4.63;;;9.90;99.90;;;;;;4991004;28;20034;-82
2021/05/28 07:44:30;;;;;;;6.57;4.03;;;9.90;99.90;;;;;;4991007;28;20062;-82
2021/05/28 07:46:56;;;;;;;7.63;4.57;;;10.20;99.90;;;;;;5008595;28;20027;-82
2021/05/28 07:49:22;;;;;;;4.78;3.10;;;10.50;99.90;;;;;;4974622;28;20398;-82
2021/05/28 07:51:47;;;;;;;8.73;4.53;;;10.80;99.90;;;;;;4990904;28;20030;-82
2021/05/28 07:54:13;;;;;;;6.38;3.75;;;11.20;99.90;;;;;;4974226;28;20096;-82
2021/05/28 07:56:39;;;;;;;5.20;4.20;;;11.40;99.90;;;;;;5008313;28;20030;-82
2021/05/28 07:59:06;;;;;;;5.45;3.80;;;12.00;99.90;;;;;;4990640;28;20117;-82
2021/05/28 08:01:32;;;;;;;6.15;3.83;;;11.90;99.90;;;;;;4974668;28;20529;-82
2021/05/28 08:03:58;;;;;;;4.72;3.85;;;12.00;99.90;;;;;;4974377;28;20034;-82
2021/05/28 08:06:25;;;;;;;6.00;3.10;;;12.30;99.90;;;;;;4990892;28;20076;-83
2021/05/28 08:08:51;;;;;;;6.80;4.13;;;12.50;99.90;;;;;;5008342;28;20498;-83
2021/05/28 08:11:16;;;;;;;5.43;3.70;;;12.60;99.90;;;;;;4991252;28;20061;-83
2021/05/28 08:13:42;;;;;;;6.22;3.90;;;12.30;99.90;;;;;;5007666;28;20080;-82
2021/05/28 08:16:08;;;;;;;6.40;4.03;;;12.70;99.90;;;;;;5006718;28;20352;-83
2021/05/28 08:18:34;;;;;;;4.03;2.97;;;13.00;99.90;;;;;;4974093;28;20031;-83
2021/05/28 08:21:00;;;;;;;6.00;4.03;;;12.50;99.90;;;;;;5006417;28;20031;-83
2021/05/28 08:23:26;;;;;;;4.63;3.42;;;12.90;99.90;;;;;;4990410;28;20125;-83
2021/05/28 08:25:52;;;;;;;3.92;3.15;;;13.50;99.90;;;;;;4990226;28;20049;-83
2021/05/28 08:28:19;;;;;;;5.65;3.92;;;13.30;99.90;;;;;;4990138;28;20457;-83
2021/05/28 08:30:45;;;;;;;4.47;3.53;;;13.60;99.90;;;;;;4990050;28;20026;-83
2021/05/28 08:33:12;;;;;;;5.18;4.57;;;13.20;99.90;;;;;;4990176;28;20041;-83
2021/05/28 08:35:39;;;;;;;4.55;3.45;;;13.50;99.90;;;;;;4990060;28;20113;-83
2021/05/28 08:38:05;;;;;;;4.57;3.13;;;13.40;99.90;;;;;;4990114;28;20034;-83
2021/05/28 08:40:32;;;;;;;5.40;3.95;;;13.70;99.90;;;;;;4990046;28;20041;-84
2021/05/28 08:43:00;;;;;;;5.05;3.15;;;14.20;99.90;;;;;;4990164;28;20457;-82
2021/05/28 08:45:44;;;;;;;4.82;3.03;;;13.80;99.90;;;;;;4973729;28;20426;-83
2021/05/28 08:48:12;;;;;;;4.05;2.95;;;14.10;99.90;;;;;;5006158;28;20043;-83
2021/05/28 08:50:39;;;;;;;4.15;2.60;;;14.40;99.90;;;;;;4973566;28;20053;-83
2021/05/28 08:53:08;;;;;;;2.72;1.70;;;14.60;99.90;;;;;;4990082;28;20466;-82
2021/05/28 08:55:35;;;;;;;3.47;2.15;;;14.70;99.90;;;;;;4973686;28;20038;-83
2021/05/28 08:58:06;;;;;;;3.00;2.05;;;14.50;99.90;;;;;;5005984;28;20034;-82
2021/05/28 09:00:32;;;;;;;3.65;1.80;;;14.90;99.90;;;;;;4989505;28;20073;-83
2021/05/28 09:03:26;;;;;;;3.10;1.60;;;14.90;99.90;;;;;;5005926;28;20085;-84
2021/05/28 09:05:55;;;;;;;3.72;1.63;;;15.30;99.90;;;;;;5004595;28;20120;-83
2021/05/28 09:08:24;;;;;;;2.30;1.20;;;15.50;99.90;;;;;;4989523;28;20046;-84
2021/05/28 09:10:50;;;;;;;1.77;0.90;;;15.10;99.90;;;;;;4989233;28;20082;-82
2021/05/28 09:13:22;;;;;;;2.25;1.10;;;15.20;99.90;;;;;;5005699;28;20030;-83
2021/05/28 09:16:05;;;;;;;2.28;1.63;;;15.00;99.90;;;;;;5005650;28;20037;-82
2021/05/28 09:19:03;;;;;;;2.90;1.75;;;14.50;99.90;;;;;;4989623;28;20034;-83
2021/05/28 09:21:36;;;;;;;4.35;2.00;;;14.60;99.90;;;;;;4961829;28;20062;-82
2021/05/28 09:24:24;;;;;;;2.60;1.40;;;14.70;99.90;;;;;;4973277;28;20034;-83
2021/05/28 09:26:50;;;;;;;1.98;1.00;;;15.00;99.90;;;;;;4969621;28;20391;-82
2021/05/28 09:29:16;;;;;;;1.50;0.90;;;15.30;99.90;;;;;;4969799;28;20039;-84
2021/05/28 09:31:42;;;;;;;2.17;0.73;;;15.90;99.90;;;;;;4985807;28;20031;-82
2021/05/28 09:34:07;;;;;;;4.28;1.10;;;16.50;99.90;;;;;;4970932;28;20483;-82
2021/05/28 09:36:39;;;;;;;2.22;1.10;;;16.50;99.90;;;;;;4996274;28;20034;-82
2021/05/28 09:39:15;;;;;;;1.80;0.85;;;16.60;99.90;;;;;;4972964;28;20038;-83
2021/05/28 09:41:56;;;;;;;1.98;1.00;;;16.60;99.90;;;;;;4996067;28;20034;-83
2021/05/28 09:44:25;;;;;;;1.70;0.57;;;16.30;99.90;;;;;;4973533;28;20036;-82
2021/05/28 09:47:16;;;;;;;1.42;0.40;;;16.70;99.90;;;;;;4950188;28;20061;-83
2021/05/28 09:49:47;;;;;;;1.58;0.43;;;16.40;99.90;;;;;;4983972;28;20050;-83
2021/05/28 09:52:25;;;;;;;1.55;0.50;;;16.70;99.90;;;;;;4953465;28;20102;-83
2021/05/28 09:55:00;;;;;;;1.92;0.70;;;16.80;99.90;;;;;;4969421;28;20031;-82
2021/05/28 09:57:32;;;;;;;1.52;0.75;;;16.10;99.90;;;;;;4969298;28;20259;-84
2021/05/28 09:59:59;;;;;;;1.40;0.70;;;16.10;99.90;;;;;;4967393;28;20271;-84
2021/05/28 10:02:30;;;;;;;1.15;0.60;;;16.20;99.90;;;;;;5003172;28;20037;-83
2021/05/28 10:04:58;;;;;;;1.45;0.57;;;17.00;99.90;;;;;;4972228;28;20050;-83
2021/05/28 10:07:25;;;;;;;2.10;0.80;;;16.20;99.90;;;;;;5005339;28;20038;-83
2021/05/28 10:09:55;;;;;;;3.40;0.80;;;15.90;99.90;;;;;;5005514;28;20061;-83
2021/05/28 10:12:21;;;;;;;;;;;16.10;99.90;;;;;;5005843;28;20057;-84
2021/05/28 10:14:49;;;;;;;2.20;0.75;;;16.30;99.90;;;;;;4987895;28;19914;-83
2021/05/28 10:17:18;;;;;;;1.98;0.70;;;16.30;99.90;;;;;;5005256;28;20031;-83
2021/05/28 10:19:45;;;;;;;1.52;0.60;;;16.30;99.90;;;;;;4987970;28;20081;-83
2021/05/28 10:22:12;;;;;;;1.65;0.50;;;16.30;99.90;;;;;;5003783;28;20586;-83
2021/05/28 10:24:38;;;;;;;1.63;0.60;;;16.20;99.90;;;;;;4988014;28;20084;-83
2021/05/28 10:27:05;;;;;;;1.58;0.50;;;16.20;99.90;;;;;;4987555;28;20041;-83
2021/05/28 10:29:31;;;;;;;1.88;0.60;;;16.30;99.90;;;;;;4979233;28;20022;-83
2021/05/28 10:32:02;;;;;;;1.48;0.60;;;16.50;99.90;;;;;;4987973;28;20048;-83
2021/05/28 10:34:29;;;;;;;0.98;0.40;;;17.30;99.90;;;;;;4988348;28;20054;-83
2021/05/28 10:36:57;;;;;;;1.88;1.02;;;17.50;99.90;;;;;;4987738;28;20118;-84
2021/05/28 10:39:27;;;;;;;1.52;0.50;;;17.60;99.90;;;;;;4988062;28;20092;-84
2021/05/28 10:41:57;;;;;;;1.02;0.47;;;17.40;99.90;;;;;;4987492;28;20038;-84
2021/05/28 10:44:26;;;;;;;0.98;0.30;;;17.10;99.90;;;;;;4987944;28;20161;-82
2021/05/28 10:46:59;;;;;;;0.90;0.30;;;17.40;99.90;;;;;;4975139;28;20051;-83
2021/05/28 10:49:43;;;;;;;1.33;0.50;;;17.40;99.90;;;;;;5000688;28;20114;-83
2021/05/28 10:52:12;;;;;;;1.92;0.50;;;17.20;99.90;;;;;;4984446;28;20102;-83
2021/05/28 10:54:40;;;;;;;0.95;0.30;;;17.20;99.90;;;;;;4984616;28;20061;-84
2021/05/28 10:57:54;;;;;;;0.93;0.30;;;17.90;99.90;;;;;;4984415;28;20097;-84
2021/05/28 11:00:29;;;;;;;0.75;0.30;;;18.00;99.90;;;;;;4947999;29;20508;-84
2021/05/28 11:03:00;;;;;;;0.85;0.30;;;18.00;99.90;;;;;;4931606;29;20036;-83
2021/05/28 11:09:14;;;;;;;0.70;0.20;;;18.40;99.90;;;;;;4906742;29;20048;-84
2021/05/28 11:11:40;;;;;;;1.00;0.20;;;18.50;99.90;;;;;;4906638;29;20052;-83
2021/05/28 11:14:09;;;;;;;0.70;0.20;;;18.80;99.90;;;;;;4891197;29;20040;-83
2021/05/28 11:16:53;;;;;;;;;;;19.00;99.90;;;;;;4891636;29;20029;-83
2021/05/28 11:19:26;;;;;;;0.43;0.20;;;19.00;99.90;;;;;;4891358;29;20238;-83
2021/05/28 11:21:57;;;;;;;0.90;0.30;;;19.50;99.90;;;;;;4875598;29;20138;-84
2021/05/28 11:24:50;;;;;;;1.17;0.30;;;19.50;99.90;;;;;;4891483;29;20108;-84
2021/05/28 11:27:23;;;;;;;1.23;0.35;;;19.20;99.90;;;;;;4875580;29;20134;-84
2021/05/28 11:30:18;;;;;;;0.80;0.40;;;19.30;99.90;;;;;;4878466;29;20124;-83
2021/05/28 11:32:44;;;;;;;1.25;0.30;;;18.90;99.90;;;;;;4894693;29;20508;-84
2021/05/28 11:35:20;;;;;;;0.98;0.40;;;19.50;99.90;;;;;;4894485;29;20048;-84
2021/05/28 11:37:58;;;;;;;0.60;0.20;;;19.10;99.90;;;;;;4894549;29;20041;-84
2021/05/28 11:40:30;;;;;;;1.65;0.30;;;19.40;99.90;;;;;;4879065;29;20040;-83
2021/05/28 11:43:21;;;;;;;0.80;0.38;;;19.60;99.90;;;;;;4910157;29;20524;-83
2021/05/28 11:45:50;;;;;;;0.70;0.40;;;19.40;99.90;;;;;;4947128;28;20093;-83
2021/05/28 11:48:17;;;;;;;0.88;0.32;;;19.70;99.90;;;;;;5003922;28;20046;-83
2021/05/28 11:50:50;;;;;;;0.85;0.30;;;19.80;99.90;;;;;;5004064;28;20102;-83
2021/05/28 11:53:16;;;;;;;3.10;0.30;;;19.50;99.90;;;;;;4987600;28;20110;-83
2021/05/28 11:55:48;;;;;;;1.90;0.57;;;19.50;99.90;;;;;;4987742;28;20030;-83
2021/05/28 11:58:18;;;;;;;1.23;0.50;;;19.70;99.90;;;;;;5003914;28;20049;-84
2021/05/28 12:00:45;;;;;;;1.25;0.40;;;18.60;99.90;;;;;;4987612;28;20027;-83
2021/05/28 12:03:11;;;;;;;0.55;0.20;;;18.90;99.90;;;;;;4988747;28;20031;-83
2021/05/28 12:05:42;;;;;;;1.20;0.30;;;19.40;99.90;;;;;;4987450;28;20095;-83
2021/05/28 12:08:11;;;;;;;0.65;0.20;;;19.60;99.90;;;;;;5003303;28;20073;-83
2021/05/28 12:10:42;;;;;;;1.15;0.30;;;19.90;99.90;;;;;;5003414;28;20026;-84
2021/05/28 12:13:14;;;;;;;1.75;0.30;;;19.30;99.90;;;;;;5003143;28;20050;-83
2021/05/28 12:15:45;;;;;;;0.55;0.30;;;19.50;99.90;;;;;;4987315;28;20038;-83
2021/05/28 12:18:17;;;;;;;1.13;0.30;;;20.00;99.90;;;;;;4952575;28;20046;-83
2021/05/28 12:20:54;;;;;;;0.98;0.38;;;19.90;99.90;;;;;;4987850;28;20026;-84
2021/05/28 12:23:44;;;;;;;0.90;0.30;;;19.80;99.90;;;;;;4972511;28;20035;-84
2021/05/28 12:26:19;;;;;;;1.50;0.40;;;19.70;99.90;;;;;;4983717;28;20039;-84
2021/05/28 12:28:51;;;;;;;1.05;0.30;;;18.90;99.90;;;;;;4987034;28;20047;-83
2021/05/28 12:31:20;;;;;;;1.98;0.40;;;18.60;99.90;;;;;;4986901;28;20031;-84
2021/05/28 12:34:09;;;;;;;1.10;0.40;;;18.80;99.90;;;;;;4986950;28;20042;-83
2021/05/28 12:36:46;;;;;;;2.35;0.40;;;18.90;99.90;;;;;;4988183;28;20518;-83
2021/05/28 12:39:15;;;;;;;1.50;0.63;;;19.00;99.90;;;;;;4986684;28;20113;-83
2021/05/28 12:41:43;;;;;;;1.30;0.50;;;19.00;99.90;;;;;;4970961;28;20035;-83
2021/05/28 12:44:10;;;;;;;1.77;0.43;;;18.80;99.90;;;;;;4986920;28;20033;-83
2021/05/28 12:46:37;;;;;;;0.90;0.30;;;19.00;99.90;;;;;;4987106;28;20031;-83
2021/05/28 12:49:08;;;;;;;1.05;0.30;;;19.60;99.90;;;;;;4988121;28;20155;-82
2021/05/28 12:51:39;;;;;;;1.48;0.30;;;20.10;99.90;;;;;;4970975;28;20034;-84
2021/05/28 12:54:26;;;;;;;0.60;0.28;;;20.20;99.90;;;;;;4970397;28;20034;-81
2021/05/28 12:57:00;;;;;;;2.33;0.30;;;19.90;99.90;;;;;;4987737;28;20035;-81
2021/05/28 12:59:36;;;;;;;0.90;0.30;;;20.50;99.90;;;;;;4986276;28;20035;-80
2021/05/28 13:02:19;;;;;;;0.50;0.20;;;20.20;99.90;;;;;;4989704;28;20568;-79